• Join FlightAware (Why Join?)
  • Login
  • US Flag 
09:40PM EDT


 

Airport Tracker/Info


-or-


 

Live Flight TrackerFlight Track Log ✈ GTX508 ✈ 06-May-2013 ✈ KCHS - KECP

Flight Track Log - Related Links

Times and Time Zones

All times are in EDT time to prevent confusion due to time zone crossing. See the GTX508 flight status page for this flight to view local times or setup timezone preferences in your user account.

Time Position Orientation Groundspeed Altitude Reporting Facility
EDT Latitude Longitude Course Direction KTS MPH feet Rate Location/Type
05:01AM 32.8188 -80.1959 239° Southwest  Level FlightAware Approximate
05:01AM 32.8086 -80.2331 248° West 118 136 5,600  Level Jacksonville Center
05:02AM 32.8044 -80.2307 245° Southwest  Level FlightAware Approximate
05:02AM 32.7928 -80.2683 242° Southwest 118 136 6,000  Level Jacksonville Center
05:03AM 32.7913 -80.2635 245° Southwest  Level FlightAware Approximate
05:03AM 32.7789 -80.3008 243° Southwest 128 147 5,900  Level Jacksonville Center
05:04AM 32.7779 -80.2963 244° Southwest  Level FlightAware Approximate
05:04AM 32.7547 -80.3483 239° Southwest 142 163 5,900  Level Jacksonville Center
05:05AM 32.7644 -80.3289 244° Southwest  Level FlightAware Approximate
05:05AM 32.7347 -80.3933 242° Southwest 147 169 5,900  Level Jacksonville Center
05:06AM 32.7508 -80.3615 244° Southwest  Level FlightAware Approximate
05:06AM 32.7169 -80.4383 245° Southwest 152 175 5,900  Level Jacksonville Center
05:07AM 32.6989 -80.4833 245° Southwest 157 181 5,900  Level Jacksonville Center
05:08AM 32.6808 -80.5281 244° Southwest 157 181 6,000  Climbing Jacksonville Center
05:09AM 32.6569 -80.5781 240° Southwest 157 181 5,900 -60 Descending Jacksonville Center
05:10AM 32.6408 -80.6181 244° Southwest 157 181 5,900  Level Jacksonville Center
05:11AM 32.6208 -80.6653 243° Southwest 149 171 5,900  Level Jacksonville Center
05:12AM 32.6028 -80.7028 240° Southwest 149 171 5,900  Level Jacksonville Center
05:13AM 32.5806 -80.7525 242° Southwest 149 171 6,000  Climbing Jacksonville Center
05:14AM 32.5583 -80.7950 238° Southwest 154 177 6,000 -60 Level Jacksonville Center
05:15AM 32.5422 -80.8325 243° Southwest 154 177 5,900 -60 Descending Jacksonville Center
05:16AM 32.5200 -80.8797 241° Southwest 160 184 5,900  Level Jacksonville Center
05:17AM 32.4978 -80.9244 240° Southwest 160 184 5,900  Level Jacksonville Center
05:18AM 32.4775 -80.9669 241° Southwest 160 184 5,900  Level Jacksonville Center
05:19AM 32.4572 -81.0067 239° Southwest 160 184 6,000  Climbing Jacksonville Center
05:20AM 32.4392 -81.0464 242° Southwest 160 184 6,000 -60 Level Jacksonville Center
05:21AM 32.4128 -81.0961 238° Southwest 160 184 5,900 -60 Descending Jacksonville Center
05:22AM 32.3925 -81.1408 242° Southwest 153 176 5,900  Level Jacksonville Center
05:23AM 32.3742 -81.1831 243° Southwest 153 176 6,000  Climbing Jacksonville Center
05:24AM 32.3539 -81.2228 239° Southwest 158 182 6,000  Level Jacksonville Center
05:25AM 32.3294 -81.2675 237° Southwest 158 182 6,000 -60 Level Jacksonville Center
05:26AM 32.3069 -81.3122 239° Southwest 153 176 5,900  Descending Jacksonville Center
05:27AM 32.2844 -81.3517 236° Southwest 147 169 6,000  Climbing Jacksonville Center
05:28AM 32.2642 -81.3864 235° Southwest 152 175 6,000  Level Jacksonville Center
05:29AM 32.2375 -81.4286 233° Southwest 152 175 6,000  Level Jacksonville Center
05:30AM 32.2128 -81.4708 235° Southwest 152 175 6,000 -60 Level Jacksonville Center
05:31AM 32.1883 -81.5106 234° Southwest 152 175 5,900  Descending Jacksonville Center
05:32AM 32.1614 -81.5503 231° Southwest 152 175 6,000 60 Climbing Jacksonville Center
05:33AM 32.1369 -81.5872 232° Southwest 152 175 6,100  Climbing Jacksonville Center
05:34AM 32.1142 -81.6269 236° Southwest 152 175 6,100 -60 Level Jacksonville Center
05:35AM 32.1022 -81.6689 251° West 147 169 6,000  Descending Jacksonville Center
05:36AM 32.0858 -81.7181 249° West 152 175 6,100  Climbing Jacksonville Center
05:37AM 32.0675 -81.7600 243° Southwest 152 175 6,100  Level Jacksonville Center
05:38AM 32.0469 -81.8019 240° Southwest 152 175 6,100  Level Jacksonville Center
05:39AM 32.0286 -81.8389 240° Southwest 152 175 6,100 -60 Level Jacksonville Center
05:40AM 32.0100 -81.8806 242° Southwest 152 175 6,000  Descending Jacksonville Center
05:41AM 31.9897 -81.9300 244° Southwest 152 175 6,100  Climbing Jacksonville Center
05:42AM 31.9711 -81.9692 241° Southwest 152 175 6,100  Level Jacksonville Center
05:43AM 31.9525 -82.0086 241° Southwest 152 175 6,100  Level Jacksonville Center
05:44AM 31.9342 -82.0506 243° Southwest 152 175 6,100  Level Jacksonville Center
05:45AM 31.9094 -82.0972 238° Southwest 152 175 6,100  Level Jacksonville Center
05:46AM 31.8908 -82.1364 241° Southwest 152 175 6,100 -60 Level Jacksonville Center
05:47AM 31.8703 -82.1806 241° Southwest 152 175 6,000  Descending Jacksonville Center
05:48AM 31.8517 -82.2175 239° Southwest 152 175 6,100  Climbing Jacksonville Center
05:49AM 31.8308 -82.2567 238° Southwest 152 175 6,100  Level Jacksonville Center
05:50AM 31.8103 -82.3058 244° Southwest 152 175 6,100 -60 Level Jacksonville Center
05:51AM 31.7917 -82.3475 242° Southwest 147 169 6,000  Descending Jacksonville Center
05:52AM 31.7689 -82.3892 237° Southwest 147 169 6,100  Climbing Jacksonville Center
05:53AM 31.7503 -82.4308 242° Southwest 147 169 6,000  Descending Jacksonville Center
05:54AM 31.7317 -82.4725 242° Southwest 147 169 6,100  Climbing Jacksonville Center
05:55AM 31.7086 -82.5117 235° Southwest 147 169 6,100  Level Jacksonville Center
05:56AM 31.6858 -82.5533 237° Southwest 147 169 6,100  Level Jacksonville Center
05:57AM 31.6631 -82.5922 235° Southwest 147 169 6,100 -60 Level Jacksonville Center
05:58AM 31.6400 -82.6289 234° Southwest 147 169 6,000  Descending Jacksonville Center
05:59AM 31.6194 -82.6706 240° Southwest 152 175 6,100  Climbing Jacksonville Center
06:00AM 31.5964 -82.7097 235° Southwest 152 175 6,100 -60 Level Jacksonville Center
06:01AM 31.5756 -82.7536 241° Southwest 152 175 6,000  Descending Jacksonville Center
06:02AM 31.5569 -82.7950 242° Southwest 152 175 6,100  Climbing Jacksonville Center
06:03AM 31.5361 -82.8342 238° Southwest 152 175 6,100 -60 Level Jacksonville Center
06:04AM 31.5150 -82.8756 239° Southwest 152 175 6,000  Descending Jacksonville Center
06:05AM 31.5006 -82.9072 242° Southwest 147 169 6,100  Climbing Jacksonville Center
06:06AM 31.4775 -82.9511 238° Southwest 147 169 6,000  Descending Jacksonville Center
06:07AM 31.4544 -82.9925 237° Southwest 147 169 6,100  Climbing Jacksonville Center
06:08AM 31.4336 -83.0289 236° Southwest 147 169 6,000  Descending Jacksonville Center
06:09AM 31.4086 -83.0703 235° Southwest 147 169 6,100  Climbing Jacksonville Center
06:10AM 31.3875 -83.1117 239° Southwest 147 169 6,100  Level Jacksonville Center
06:11AM 31.3625 -83.1506 233° Southwest 147 169 6,100  Level Jacksonville Center
06:12AM 31.3414 -83.1869 236° Southwest 147 169 6,100  Level Jacksonville Center
06:13AM 31.3164 -83.2258 233° Southwest 147 169 6,100 -60 Level Jacksonville Center
06:14AM 31.2911 -83.2644 233° Southwest 147 169 6,000  Descending Jacksonville Center
06:15AM 31.2681 -83.3033 235° Southwest 147 169 6,100  Climbing Jacksonville Center
06:16AM 31.2469 -83.3444 239° Southwest 147 169 6,100 -60 Level Jacksonville Center
06:17AM 31.2322 -83.3858 247° West 147 169 6,000  Descending Jacksonville Center
06:18AM 31.2153 -83.4269 244° Southwest 142 163 6,100  Climbing Jacksonville Center
06:19AM 31.1964 -83.4681 242° Southwest 142 163 6,100 -60 Level Jacksonville Center
06:20AM 31.1733 -83.5094 237° Southwest 142 163 6,000  Descending Jacksonville Center
06:21AM 31.1564 -83.5481 243° Southwest 142 163 6,100  Climbing Jacksonville Center
06:22AM 31.1417 -83.5917 248° West 142 163 6,100 -60 Level Jacksonville Center
06:23AM 31.1267 -83.6353 248° West 142 163 6,000  Descending Jacksonville Center
06:24AM 31.1075 -83.6764 241° Southwest 142 163 6,100  Climbing Jacksonville Center
06:25AM 31.0886 -83.7175 242° Southwest 142 163 6,100  Level Jacksonville Center
06:26AM 31.0736 -83.7586 247° West 142 163 6,100 -60 Level Jacksonville Center
06:27AM 31.0589 -83.8019 248° West 142 163 6,000  Descending Jacksonville Center
06:28AM 31.0417 -83.8456 245° Southwest 147 169 6,100  Climbing Jacksonville Center
06:29AM 31.0247 -83.8867 244° Southwest 147 169 6,100 -60 Level Jacksonville Center
06:30AM 31.0056 -83.9275 241° Southwest 147 169 6,000  Descending Jacksonville Center
06:31AM 30.9886 -83.9708 245° Southwest 147 169 6,100  Climbing Jacksonville Center
06:32AM 30.9672 -84.0167 241° Southwest 147 169 6,100 -60 Level Jacksonville Center
06:33AM 30.9481 -84.0553 240° Southwest 147 169 6,000 -60 Descending Jacksonville Center
06:34AM 30.9311 -84.1011 247° West 152 175 6,000  Level Jacksonville Center
06:35AM 30.9161 -84.1422 247° West 152 175 6,100  Climbing Jacksonville Center
06:36AM 30.9031 -84.1878 252° West 152 175 6,000  Descending Jacksonville Center
06:37AM 30.8900 -84.2314 251° West 147 169 6,100  Climbing Jacksonville Center
06:38AM 30.8731 -84.2697 243° Southwest 152 175 6,100 -60 Level Jacksonville Center
06:40AM 30.8564 -84.3210 249° West  Level FlightAware Approximate
06:42AM 30.8061 -84.4503 249° West 154 177 6,000  Level Jacksonville Center
06:43AM 30.7931 -84.4886 248° West 149 171 6,100  Climbing Jacksonville Center
06:44AM 30.7717 -84.5269 237° Southwest 154 177 6,100  Level Jacksonville Center
06:45AM 30.7628 -84.5775 258° West 154 177 6,100 -60 Level Jacksonville Center
06:46AM 30.7475 -84.6183 246° West 154 177 6,000  Descending Jacksonville Center
06:47AM 30.7561 -84.6279 249° West  Level FlightAware Approximate
06:47AM 30.7303 -84.6617 245° Southwest 154 177 6,100  Level Jacksonville Center
06:48AM 30.7417 -84.6717 249° West  Level FlightAware Approximate
06:48AM 30.7131 -84.7047 245° Southwest 154 177 6,100  Level Jacksonville Center
06:49AM 30.6956 -84.7481 245° Southwest 154 177 6,100  Level Jacksonville Center
06:50AM 30.6761 -84.7886 241° Southwest 154 177 6,100  Level Jacksonville Center
06:51AM 30.6672 -84.8319 257° West 154 177 6,100 -60 Level Jacksonville Center
06:52AM 30.6539 -84.8775 251° West 149 171 6,000  Descending Jacksonville Center
06:53AM 30.6386 -84.9206 248° West 149 171 6,100  Climbing Jacksonville Center
06:54AM 30.6233 -84.9639 248° West 149 171 6,100 -60 Level Jacksonville Center
06:55AM 30.6081 -85.0092 249° West 149 171 6,000  Descending Jacksonville Center
06:56AM 30.5928 -85.0500 247° West 149 171 6,100 -240 Climbing Jacksonville Center
06:57AM 30.5731 -85.0956 243° Southwest 149 171 5,600 -600 Descending Jacksonville Center
06:58AM 30.5556 -85.1456 248° West 159 183 5,000 -600 Descending Jacksonville Center
06:59AM 30.5400 -85.1983 251° West 170 196 4,400 -660 Descending Jacksonville Center
07:00AM 30.5183 -85.2508 244° Southwest 176 203 3,700 -720 Descending Jacksonville Center
07:02AM 30.5050 -85.3028 256° West  Level FlightAware Approximate
07:09AM 30.4144 -85.6131 248° West  Level FlightAware Approximate
07:10AM 30.3989 -85.6564 247° West  Level FlightAware Approximate
07:11AM 30.3834 -85.6997 247° West  Level FlightAware Approximate
07:12AM 30.3664 -85.7422 245° Southwest  Level FlightAware Approximate
07:13AM 30.3500 -85.7833 245° Southwest  Level FlightAware Approximate
07:14AM 30.3582 -85.7956 245° Southwest  Level Estimated
07:15AM 30.3582 -85.7956 245° Southwest  Level Estimated
07:16AM 30.3582 -85.7956 245° Southwest  Level Estimated
07:17AM 30.3582 -85.7956 245° Southwest  Level Estimated
07:18AM 30.3582 -85.7956 245° Southwest  Level Estimated
07:19AM 30.3582 -85.7956 245° Southwest  Level Estimated
07:20AM 30.3582 -85.7956 245° Southwest  Level Estimated